Time;durP1;ratioP1;P1;durP2;ratioP2;P2;SDS_P1;SDS_P2;PMS_P1;PMS_P2;Temp;Humidity;BMP_temperature;BMP_pressure;BME280_temperature;BME280_humidity;BME280_pressure;Samples;Min_cycle;Max_cycle;Signal;HPM_P1;HPM_P2
2021/01/18 00:02:07;;;;;;;78.57;28.10;;;;;;;-9.97;67.30;99414.16;119949;1151;104423;-71
2021/01/18 00:04:34;;;;;;;64.73;26.70;;;;;;;-9.95;67.07;99409.06;119921;1151;104518;-69
2021/01/18 00:07:05;;;;;;;69.90;26.43;;;;;;;-10.00;66.43;99411.58;119955;1151;104369;-71
2021/01/18 00:09:34;;;;;;;68.80;24.45;;;;;;;-10.08;66.56;99418.30;120831;1151;104390;-70
2021/01/18 00:12:00;;;;;;;75.20;29.03;;;;;;;-10.13;66.39;99417.36;120193;1151;104379;-71
2021/01/18 00:14:28;;;;;;;72.67;26.87;;;;;;;-10.07;66.88;99420.03;120007;1151;104377;-71
2021/01/18 00:16:55;;;;;;;70.23;27.70;;;;;;;-10.05;66.32;99413.20;119998;1151;104477;-71
2021/01/18 00:19:23;;;;;;;68.87;25.73;;;;;;;-10.02;66.59;99410.68;119948;1151;104377;-70
2021/01/18 00:21:49;;;;;;;77.67;27.27;;;;;;;-10.01;67.50;99412.41;119949;1151;104348;-71
2021/01/18 00:24:16;;;;;;;70.75;28.55;;;;;;;-9.98;67.58;99416.73;119926;1151;104346;-73
2021/01/18 00:26:48;;;;;;;63.03;26.07;;;;;;;-10.00;66.64;99416.72;119972;1151;104882;-71
2021/01/18 00:29:15;;;;;;;64.83;25.77;;;;;;;-10.05;66.49;99406.33;120053;1151;104345;-70
2021/01/18 00:31:46;;;;;;;69.80;26.93;;;;;;;-10.07;67.11;99413.16;119936;1151;104843;-70
2021/01/18 00:34:13;;;;;;;65.63;26.33;;;;;;;-10.08;67.18;99429.44;119986;1151;104799;-71
2021/01/18 00:36:50;;;;;;;65.83;25.93;;;;;;;-10.11;67.27;99426.81;119999;1151;104374;-70
2021/01/18 00:39:17;;;;;;;64.20;25.13;;;;;;;-10.12;67.42;99437.09;120013;1151;104371;-69
2021/01/18 00:41:44;;;;;;;67.27;24.87;;;;;;;-10.16;67.29;99438.73;120037;1151;104679;-71
2021/01/18 00:44:11;;;;;;;62.60;24.53;;;;;;;-10.20;66.52;99431.83;119930;1150;104352;-71
2021/01/18 00:46:38;;;;;;;64.75;23.95;;;;;;;-10.19;67.42;99433.56;119941;1151;104487;-71
2021/01/18 00:49:05;;;;;;;64.25;25.90;;;;;;;-10.17;67.42;99437.00;119921;1151;104535;-71
2021/01/18 00:51:37;;;;;;;66.83;26.50;;;;;;;-10.16;67.67;99438.73;119952;1148;104869;-70
2021/01/18 00:54:05;;;;;;;68.40;23.33;;;;;;;-10.23;66.36;99447.21;120040;1151;104362;-71
2021/01/18 00:56:33;;;;;;;73.07;26.60;;;;;;;-10.26;66.38;99439.44;120006;1151;104511;-71
2021/01/18 00:59:00;;;;;;;65.70;25.77;;;;;;;-10.27;67.33;99435.98;119991;1151;104526;-72
2021/01/18 01:01:27;;;;;;;68.93;26.67;;;;;;;-10.29;66.51;99434.23;119966;1151;104427;-72
2021/01/18 01:03:56;;;;;;;58.10;24.67;;;;;;;-10.30;66.38;99432.50;119902;1151;104371;-71
2021/01/18 01:06:23;;;;;;;60.55;25.55;;;;;;;-10.33;66.49;99436.75;120053;1151;104559;-71
2021/01/18 01:08:50;;;;;;;69.00;26.90;;;;;;;-10.35;67.54;99433.29;119935;1151;104348;-69
2021/01/18 01:11:17;;;;;;;68.43;26.10;;;;;;;-10.38;66.98;99433.23;119955;1151;104372;-70
2021/01/18 01:13:44;;;;;;;72.17;25.40;;;;;;;-10.38;67.11;99430.66;119943;1151;104342;-70
2021/01/18 01:16:11;;;;;;;69.30;25.90;;;;;;;-10.34;66.48;99419.59;119968;1150;104441;-71
2021/01/18 01:18:38;;;;;;;64.93;26.40;;;;;;;-10.32;67.40;99428.20;119976;1151;104524;-71
2021/01/18 01:21:05;;;;;;;67.00;26.68;;;;;;;-10.30;66.71;99430.78;119941;1151;104449;-71
2021/01/18 01:23:32;;;;;;;70.60;27.57;;;;;;;-10.26;67.37;99429.15;119944;1151;104452;-71
2021/01/18 01:26:00;;;;;;;64.07;23.67;;;;;;;-10.23;67.53;99436.92;119979;1151;104468;-69
2021/01/18 01:28:27;;;;;;;65.20;25.43;;;;;;;-10.19;67.23;99433.56;119995;1151;104502;-70
2021/01/18 01:30:55;;;;;;;68.60;25.73;;;;;;;-10.19;66.80;99429.27;119879;1151;104375;-71
2021/01/18 01:33:23;;;;;;;63.80;25.50;;;;;;;-10.16;66.84;99436.16;120017;1151;104455;-70
2021/01/18 01:35:50;;;;;;;65.03;27.20;;;;;;;-10.22;66.12;99429.22;120052;1151;104413;-72
2021/01/18 01:38:17;;;;;;;66.43;26.33;;;;;;;-10.26;66.37;99430.00;119975;1151;104448;-71
2021/01/18 01:40:43;;;;;;;58.00;23.47;;;;;;;-10.31;66.79;99436.77;120040;1151;104756;-70
2021/01/18 01:43:10;;;;;;;55.23;22.07;;;;;;;-10.39;66.87;99439.25;119923;1151;104378;-71
2021/01/18 01:45:37;;;;;;;68.17;24.40;;;;;;;-10.45;66.38;99435.71;120032;1151;104350;-71
2021/01/18 01:48:05;;;;;;;64.27;24.77;;;;;;;-10.43;66.71;99446.89;120012;1151;104347;-70
2021/01/18 01:50:37;;;;;;;64.83;26.70;;;;;;;-10.42;66.41;99448.62;119989;1151;104461;-70
2021/01/18 01:53:12;;;;;;;57.90;22.90;;;;;;;-10.45;66.36;99446.00;119991;1151;104468;-71
2021/01/18 01:55:39;;;;;;;62.17;25.60;;;;;;;-10.47;67.15;99444.27;120068;1151;104459;-71
2021/01/18 01:58:08;;;;;;;56.57;19.97;;;;;;;-10.43;66.89;99439.17;120008;1151;104441;-70
2021/01/18 02:00:39;;;;;;;60.83;24.93;;;;;;;-10.43;67.18;99434.03;120087;1151;104403;-69
2021/01/18 02:03:10;;;;;;;67.55;23.45;;;;;;;-10.45;66.24;99441.70;119969;1151;104343;-72
2021/01/18 02:05:39;;;;;;;63.27;24.90;;;;;;;-10.44;67.25;99440.02;120012;1151;104433;-70
2021/01/18 02:08:09;;;;;;;62.07;25.53;;;;;;;-10.41;67.25;99435.78;119929;1151;104391;-71
2021/01/18 02:10:38;;;;;;;63.57;25.90;;;;;;;-10.34;67.45;99434.14;119980;1151;104567;-71
2021/01/18 02:13:17;;;;;;;68.35;27.15;;;;;;;-10.34;66.74;99435.02;119992;1151;104483;-71
2021/01/18 02:15:47;;;;;;;69.57;26.00;;;;;;;-10.34;66.45;99435.02;119922;1151;104374;-72
2021/01/18 02:18:32;;;;;;;70.33;26.67;;;;;;;-10.39;66.27;99438.40;119987;1151;104478;-71
2021/01/18 02:21:02;;;;;;;76.03;27.70;;;;;;;-10.46;67.10;99447.69;120025;1151;104383;-72
2021/01/18 02:23:51;;;;;;;46.80;17.40;;;;;;;-10.52;67.54;99442.42;119944;1151;104473;-72
2021/01/18 02:26:21;;;;;;;57.17;20.47;;;;;;;-10.58;66.39;99445.77;120076;1151;104420;-72
2021/01/18 02:29:04;;;;;;;66.27;26.37;;;;;;;-10.57;66.63;99454.33;119962;1151;104371;-70
2021/01/18 02:31:38;;;;;;;65.20;25.97;;;;;;;-10.59;66.99;99445.75;119957;1150;104417;-71
2021/01/18 02:34:31;;;;;;;67.97;27.43;;;;;;;-10.60;67.04;99451.73;119866;1151;104429;-70
2021/01/18 02:37:26;;;;;;;61.43;25.87;;;;;;;-10.62;66.60;99449.11;120215;1151;104371;-71
2021/01/18 02:40:06;;;;;;;73.20;28.03;;;;;;;-10.63;66.68;99440.55;119920;1151;104345;-71
2021/01/18 02:42:41;;;;;;;71.33;25.40;;;;;;;-10.59;66.36;99449.17;119964;1149;104585;-70
2021/01/18 02:45:11;;;;;;;62.10;25.53;;;;;;;-10.55;67.00;99442.37;119949;1151;104450;-72
2021/01/18 02:47:43;;;;;;;50.93;19.40;;;;;;;-10.52;66.89;99450.14;120106;1151;104452;-71
2021/01/18 02:50:11;;;;;;;58.77;23.53;;;;;;;-10.58;67.09;99452.59;120007;1151;104458;-70
2021/01/18 02:52:40;;;;;;;71.70;27.80;;;;;;;-10.57;67.66;99449.19;120017;1151;104369;-72
2021/01/18 02:55:08;;;;;;;74.03;29.57;;;;;;;-10.56;66.73;99450.92;120020;1151;104494;-70
2021/01/18 02:57:39;;;;;;;69.30;27.97;;;;;;;-10.60;66.42;99452.58;119988;1151;104349;-71
2021/01/18 03:00:21;;;;;;;70.60;28.23;;;;;;;-10.64;66.85;99443.07;120224;1151;104345;-71
2021/01/18 03:02:57;;;;;;;69.13;27.03;;;;;;;-10.66;66.31;99448.20;120311;1151;104369;-71
2021/01/18 03:05:48;;;;;;;69.83;26.30;;;;;;;-10.64;67.09;99450.78;119954;1151;104452;-69
2021/01/18 03:08:25;;;;;;;69.10;24.90;;;;;;;-10.60;67.27;99441.44;119951;1151;104981;-70
2021/01/18 03:11:13;;;;;;;65.90;25.63;;;;;;;-10.60;67.13;99455.15;119873;1151;104474;-70
2021/01/18 03:13:52;;;;;;;71.93;26.07;;;;;;;-10.62;66.46;99449.11;120569;1151;103036;-70
2021/01/18 03:16:22;;;;;;;67.60;26.00;;;;;;;-10.63;66.22;99444.80;119948;1150;104420;-71
2021/01/18 03:18:51;;;;;;;65.00;26.00;;;;;;;-10.60;67.25;99439.72;119920;1151;104420;-69
2021/01/18 03:21:20;;;;;;;70.13;24.50;;;;;;;-10.58;67.33;99438.05;119936;1151;104369;-69
2021/01/18 03:23:46;;;;;;;71.87;29.57;;;;;;;-10.59;67.46;99440.61;119842;1151;104394;-68
2021/01/18 03:26:14;;;;;;;54.73;20.80;;;;;;;-10.60;67.37;99441.44;119964;1151;104369;-71
2021/01/18 03:28:41;;;;;;;73.93;29.10;;;;;;;-10.68;67.11;99439.59;120005;1151;104346;-70
2021/01/18 03:31:08;;;;;;;62.17;24.90;;;;;;;-10.71;67.02;99436.95;120086;1151;104452;-72
2021/01/18 03:33:36;;;;;;;68.17;26.67;;;;;;;-10.70;67.24;99445.52;120108;1151;104448;-71
2021/01/18 03:36:03;;;;;;;60.67;21.70;;;;;;;-10.64;66.47;99440.50;120067;1151;104373;-71
2021/01/18 03:38:30;;;;;;;63.58;27.13;;;;;;;-10.66;67.18;99437.91;120145;1150;104420;-71
2021/01/18 03:40:57;;;;;;;75.37;29.00;;;;;;;-10.65;66.86;99434.51;119987;1151;104404;-71
2021/01/18 03:43:24;;;;;;;67.13;26.70;;;;;;;-10.66;66.96;99443.05;120072;1151;104357;-68
2021/01/18 03:45:51;;;;;;;66.97;26.97;;;;;;;-10.71;66.40;99436.08;119844;1151;104382;-70
2021/01/18 03:48:18;;;;;;;63.60;25.37;;;;;;;-10.73;67.19;99443.77;119940;1150;105103;-71
2021/01/18 03:50:48;;;;;;;66.23;23.20;;;;;;;-10.80;66.54;99447.05;119944;1151;104509;-71
2021/01/18 03:53:16;;;;;;;63.47;23.83;;;;;;;-10.86;66.71;99432.39;119905;1151;104457;-72
2021/01/18 03:55:44;;;;;;;70.90;26.30;;;;;;;-10.84;67.18;99440.12;120506;1150;104374;-71
2021/01/18 03:58:10;;;;;;;68.90;28.57;;;;;;;-10.80;66.54;99435.05;120013;1151;104443;-71
2021/01/18 04:00:37;;;;;;;73.13;28.80;;;;;;;-10.74;66.29;99428.30;119911;1151;104379;-70
2021/01/18 04:03:04;;;;;;;73.75;27.20;;;;;;;-10.69;67.25;99426.69;119961;1151;104375;-71
2021/01/18 04:05:32;;;;;;;73.17;27.77;;;;;;;-10.69;66.53;99427.57;120000;1150;104492;-71
2021/01/18 04:08:00;;;;;;;73.20;27.10;;;;;;;-10.70;67.36;99428.41;120049;1150;104522;-71
2021/01/18 04:10:29;;;;;;;71.10;27.60;;;;;;;-10.72;67.28;99426.62;119914;1150;105897;-72
2021/01/18 04:12:57;;;;;;;71.93;30.00;;;;;;;-10.71;66.77;99429.25;119978;1150;104538;-71
2021/01/18 04:15:27;;;;;;;72.47;28.73;;;;;;;-10.78;67.18;99430.81;120727;1150;104346;-72
2021/01/18 04:17:57;;;;;;;69.17;26.20;;;;;;;-10.80;66.44;99431.63;120037;1150;104443;-71
2021/01/18 04:20:25;;;;;;;74.60;28.20;;;;;;;-10.80;66.52;99435.05;119945;1151;104454;-72
2021/01/18 04:22:55;;;;;;;76.57;30.23;;;;;;;-10.81;66.65;99428.21;120029;1150;104387;-71
2021/01/18 04:25:26;;;;;;;78.30;27.87;;;;;;;-10.73;67.25;99424.89;119954;1151;104345;-70
2021/01/18 04:27:56;;;;;;;75.20;27.30;;;;;;;-10.69;66.57;99427.57;119887;1151;104460;-70
2021/01/18 04:30:25;;;;;;;73.73;29.27;;;;;;;-10.65;66.43;99428.48;119949;1151;104444;-70
2021/01/18 04:32:59;;;;;;;65.80;27.20;;;;;;;-10.62;66.38;99424.28;119940;1151;104524;-71
2021/01/18 04:35:28;;;;;;;74.90;30.60;;;;;;;-10.60;67.13;99426.87;119966;1151;104520;-71
2021/01/18 04:37:55;;;;;;;70.13;28.27;;;;;;;-10.60;66.97;99426.02;121199;1150;104910;-70
2021/01/18 04:40:25;;;;;;;70.77;29.83;;;;;;;-10.66;66.59;99437.03;119948;1151;104410;-71
2021/01/18 04:42:53;;;;;;;75.77;30.33;;;;;;;-10.71;66.29;99438.64;120115;1151;104367;-74
2021/01/18 04:45:22;;;;;;;75.45;28.60;;;;;;;-10.76;66.07;99448.85;120103;1151;104416;-70
2021/01/18 04:47:53;;;;;;;74.57;26.93;;;;;;;-10.78;66.48;99446.23;119941;1151;104863;-70
2021/01/18 04:50:24;;;;;;;70.83;29.23;;;;;;;-10.79;67.13;99449.64;120069;1151;104354;-71
2021/01/18 04:52:55;;;;;;;79.73;33.23;;;;;;;-10.82;66.62;99453.87;120066;1151;104384;-71
2021/01/18 04:55:22;;;;;;;79.60;28.03;;;;;;;-10.86;66.91;99465.80;120029;1151;104415;-72
2021/01/18 04:58:02;;;;;;;73.65;28.55;;;;;;;-10.93;66.28;99464.79;119982;1151;104439;-71
2021/01/18 05:00:46;;;;;;;78.23;31.10;;;;;;;-10.98;66.63;99450.98;120052;1151;104445;-71
2021/01/18 05:03:18;;;;;;;68.63;28.60;;;;;;;-10.99;66.55;99456.95;119990;1151;104468;-71
2021/01/18 05:05:53;;;;;;;71.27;27.63;;;;;;;-10.96;66.47;99459.59;119888;1151;104354;-70
2021/01/18 05:08:39;;;;;;;83.40;31.00;;;;;;;-10.94;66.97;99459.63;120059;1151;104364;-69
2021/01/18 05:11:12;;;;;;;72.80;28.07;;;;;;;-10.93;66.96;99463.94;119971;1151;104519;-70
2021/01/18 05:13:41;;;;;;;80.10;31.87;;;;;;;-10.94;66.38;99459.63;119914;1151;104381;-70
2021/01/18 05:16:08;;;;;;;89.03;31.00;;;;;;;-10.93;66.50;99456.23;119896;1150;104461;-71
2021/01/18 05:18:37;;;;;;;76.63;31.50;;;;;;;-10.90;66.85;99464.00;119929;1151;104476;-70
2021/01/18 05:21:06;;;;;;;88.20;30.73;;;;;;;-10.89;67.14;99463.17;120154;1151;104373;-70
2021/01/18 05:23:46;;;;;;;80.57;27.40;;;;;;;-10.90;66.98;99458.86;120026;1150;104601;-70
2021/01/18 05:26:18;;;;;;;67.70;26.97;;;;;;;-10.92;67.36;99458.81;119920;1151;104494;-71
2021/01/18 05:28:47;;;;;;;83.77;31.47;;;;;;;-10.91;66.51;99464.84;120007;1151;104492;-70
2021/01/18 05:31:26;;;;;;;69.13;28.47;;;;;;;-10.96;66.81;99469.86;119995;1151;104444;-71
2021/01/18 05:33:58;;;;;;;78.53;28.60;;;;;;;-10.92;66.45;99469.09;119960;1151;104348;-68
2021/01/18 05:36:35;;;;;;;73.57;28.23;;;;;;;-10.87;67.07;99470.89;119838;1151;104388;-69
2021/01/18 05:39:11;;;;;;;67.87;27.60;;;;;;;-10.81;66.97;99471.02;120220;1149;104555;-68
2021/01/18 05:41:39;;;;;;;71.60;27.43;;;;;;;-10.73;66.66;99468.59;119799;1151;104377;-69
2021/01/18 05:44:07;;;;;;;76.17;29.20;;;;;;;-10.65;66.59;99462.78;119942;1151;104356;-70
2021/01/18 05:46:37;;;;;;;73.60;29.50;;;;;;;-10.58;66.53;99468.02;121329;1150;103176;-69
2021/01/18 05:49:11;;;;;;;82.07;30.97;;;;;;;-10.57;66.38;99465.50;120966;1150;104527;-69
2021/01/18 05:51:39;;;;;;;72.60;26.95;;;;;;;-10.57;66.66;99464.61;119895;1151;104353;-69
2021/01/18 05:54:11;;;;;;;82.40;31.00;;;;;;;-10.60;67.05;99472.30;119900;1151;104348;-68
2021/01/18 05:56:44;;;;;;;83.50;31.93;;;;;;;-10.59;67.05;99467.17;121452;1150;101932;-69
2021/01/18 05:59:33;;;;;;;75.80;27.42;;;;;;;-10.62;66.74;99464.53;120375;1150;104608;-69
2021/01/18 06:02:02;;;;;;;60.40;23.97;;;;;;;-10.66;66.84;99467.88;120038;1151;105193;-70
2021/01/18 06:04:30;;;;;;;71.43;27.50;;;;;;;-10.78;66.17;99466.80;120032;1151;104433;-70
2021/01/18 06:07:03;;;;;;;63.65;24.60;;;;;;;-10.87;66.99;99464.06;120077;1151;104375;-69
2021/01/18 06:09:51;;;;;;;65.83;24.97;;;;;;;-10.98;66.75;99462.98;120068;1150;104554;-70
2021/01/18 06:12:27;;;;;;;68.15;26.45;;;;;;;-11.02;66.21;99467.20;120054;1150;104349;-70
2021/01/18 06:15:08;;;;;;;67.93;26.10;;;;;;;-11.08;67.02;99470.48;120049;1151;104538;-69
2021/01/18 06:17:45;;;;;;;61.87;23.90;;;;;;;-11.15;66.22;99467.77;120042;1151;104413;-69
2021/01/18 06:20:21;;;;;;;55.73;22.57;;;;;;;-11.16;66.29;99481.44;120110;1151;104412;-69
2021/01/18 06:22:50;;;;;;;75.87;25.37;;;;;;;-11.18;66.05;99486.53;120074;1151;104349;-69
2021/01/18 06:25:17;;;;;;;65.63;24.13;;;;;;;-11.18;66.99;99486.53;120126;1151;104347;-68
2021/01/18 06:27:45;;;;;;;69.85;23.30;;;;;;;-11.12;66.29;99490.95;120055;1151;104356;-69
2021/01/18 06:30:32;;;;;;;58.63;23.80;;;;;;;-11.12;67.00;99493.52;120044;1151;104447;-69
2021/01/18 06:33:10;;;;;;;64.70;23.33;;;;;;;-11.08;67.01;99485.05;120103;1150;104374;-68
2021/01/18 06:35:38;;;;;;;65.97;26.00;;;;;;;-11.05;66.68;99492.82;120025;1151;104455;-67
2021/01/18 06:38:07;;;;;;;65.50;25.30;;;;;;;-10.99;67.10;99494.64;120055;1151;104345;-69
2021/01/18 06:40:43;;;;;;;65.37;25.40;;;;;;;-11.03;67.14;99491.16;120032;1151;104515;-70
2021/01/18 06:43:10;;;;;;;63.50;26.00;;;;;;;-11.00;66.46;99498.05;119993;1151;104378;-68
2021/01/18 06:45:39;;;;;;;67.93;25.53;;;;;;;-11.02;66.25;99487.75;120034;1151;104416;-68
2021/01/18 06:48:09;;;;;;;63.63;25.50;;;;;;;-11.05;66.10;99494.51;120025;1151;104391;-68
2021/01/18 06:50:39;;;;;;;67.57;26.50;;;;;;;-11.13;66.86;99497.77;120036;1151;104362;-71
2021/01/18 06:53:16;;;;;;;69.45;26.80;;;;;;;-11.13;67.06;99502.06;120047;1151;104320;-67
2021/01/18 06:56:10;;;;;;;64.30;24.73;;;;;;;-11.10;66.77;99497.84;120004;1151;104423;-68
2021/01/18 06:59:07;;;;;;;59.83;22.48;;;;;;;-11.04;66.28;99503.95;120047;1151;104461;-68
2021/01/18 07:01:39;;;;;;;65.90;25.33;;;;;;;-11.02;66.25;99507.42;120094;1151;104555;-69
2021/01/18 07:04:12;;;;;;;60.87;23.27;;;;;;;-11.05;67.01;99508.23;120182;1150;104348;-68
2021/01/18 07:06:45;;;;;;;64.75;24.40;;;;;;;-11.12;66.40;99503.80;120061;1151;104393;-69
2021/01/18 07:09:15;;;;;;;59.47;22.93;;;;;;;-11.13;66.87;99505.48;120030;1151;104592;-70
2021/01/18 07:12:03;;;;;;;59.70;23.17;;;;;;;-11.10;66.51;99499.56;120061;1151;104417;-70
2021/01/18 07:14:31;;;;;;;59.87;24.80;;;;;;;-11.07;65.90;99503.05;120034;1151;104542;-68
2021/01/18 07:17:05;;;;;;;64.20;23.90;;;;;;;-11.07;67.00;99507.34;120060;1151;104385;-71
2021/01/18 07:19:42;;;;;;;63.43;27.43;;;;;;;-11.06;67.05;99506.50;120045;1151;104503;-69
2021/01/18 07:22:23;;;;;;;59.83;24.30;;;;;;;-11.05;66.13;99507.36;119905;1151;104444;-69
2021/01/18 07:24:58;;;;;;;55.57;20.33;;;;;;;-11.04;66.72;99509.09;120012;1151;104371;-70
2021/01/18 07:27:29;;;;;;;60.30;23.50;;;;;;;-11.08;66.80;99505.60;120010;1151;104420;-71
2021/01/18 07:30:00;;;;;;;56.63;21.27;;;;;;;-11.05;66.74;99509.92;120025;1151;104555;-70
2021/01/18 07:32:28;;;;;;;55.27;21.37;;;;;;;-11.04;66.75;99511.66;120037;1151;104443;-69
2021/01/18 07:34:57;;;;;;;50.93;20.53;;;;;;;-11.09;66.68;99517.56;119807;1151;104458;-70
2021/01/18 07:37:25;;;;;;;70.43;26.07;;;;;;;-11.14;66.93;99515.73;119970;1151;104346;-68
2021/01/18 07:39:52;;;;;;;62.17;25.07;;;;;;;-11.09;66.96;99514.14;120218;1149;104439;-68
2021/01/18 07:42:32;;;;;;;59.87;21.80;;;;;;;-11.03;66.64;99515.96;119932;1151;104478;-70
2021/01/18 07:45:12;;;;;;;59.90;23.97;;;;;;;-11.00;67.22;99511.75;119932;1150;104499;-71
2021/01/18 07:47:55;;;;;;;63.87;25.10;;;;;;;-10.94;67.07;99505.89;119909;1151;104378;-70
2021/01/18 07:50:39;;;;;;;54.07;21.70;;;;;;;-10.95;66.09;99494.73;119998;1151;104345;-70
2021/01/18 07:53:09;;;;;;;55.27;21.00;;;;;;;-10.96;66.35;99505.84;119936;1151;104588;-69
2021/01/18 07:55:39;;;;;;;50.23;19.70;;;;;;;-10.94;67.06;99499.03;119953;1151;104447;-69
2021/01/18 07:58:15;;;;;;;55.20;21.73;;;;;;;-10.88;66.96;99500.88;120000;1151;104394;-70
2021/01/18 08:00:46;;;;;;;58.00;23.43;;;;;;;-10.82;66.30;99505.27;119873;1151;104473;-71
2021/01/18 08:03:13;;;;;;;51.97;22.07;;;;;;;-10.73;67.12;99504.58;120022;1151;104455;-70
2021/01/18 08:05:43;;;;;;;55.63;21.23;;;;;;;-10.65;67.06;99505.61;120904;1151;104417;-70
2021/01/18 08:08:13;;;;;;;48.57;20.50;;;;;;;-10.62;66.33;99503.10;120001;1151;104368;-69
2021/01/18 08:11:11;;;;;;;52.33;23.37;;;;;;;-10.58;66.73;99506.59;119955;1151;104486;-71
2021/01/18 08:13:47;;;;;;;55.37;21.97;;;;;;;-10.57;66.99;99508.32;120019;1151;104489;-69
2021/01/18 08:16:19;;;;;;;53.73;22.20;;;;;;;-10.61;66.84;99504.84;119899;1151;104377;-70
2021/01/18 08:19:00;;;;;;;55.80;21.27;;;;;;;-10.58;66.23;99509.16;119934;1151;104369;-70
2021/01/18 08:21:34;;;;;;;55.50;22.23;;;;;;;-10.52;66.95;99519.57;119903;1151;104471;-71
2021/01/18 08:24:27;;;;;;;57.90;20.33;;;;;;;-10.49;66.75;99519.63;119847;1151;104464;-70
2021/01/18 08:26:54;;;;;;;56.10;23.10;;;;;;;-10.49;66.75;99517.95;119864;1151;104444;-69
2021/01/18 08:29:52;;;;;;;55.33;23.57;;;;;;;-10.47;66.58;99521.41;119937;1151;104413;-70
2021/01/18 08:32:22;;;;;;;53.40;22.80;;;;;;;-10.52;67.00;99517.88;121800;1151;104320;-69
2021/01/18 08:34:52;;;;;;;56.73;23.00;;;;;;;-10.50;67.19;99526.50;120077;1151;104381;-70
2021/01/18 08:37:19;;;;;;;58.80;22.30;;;;;;;-10.44;66.81;99530.88;119929;1151;104396;-69
2021/01/18 08:40:13;;;;;;;54.33;22.93;;;;;;;-10.38;67.03;99527.52;119888;1151;104383;-69
2021/01/18 08:42:43;;;;;;;70.40;30.70;;;;;;;-10.38;65.93;99535.23;119962;1151;104506;-69
2021/01/18 08:45:19;;;;;;;53.00;19.30;;;;;;;-10.39;66.97;99539.55;120141;1151;104351;-68
2021/01/18 08:47:58;;;;;;;57.15;21.55;;;;;;;-10.39;66.56;99534.41;119836;1151;104368;-70
2021/01/18 08:50:30;;;;;;;56.50;22.73;;;;;;;-10.35;66.69;99536.17;119945;1150;104439;-70
2021/01/18 08:53:00;;;;;;;56.07;23.90;;;;;;;-10.29;67.17;99537.98;119788;1151;104468;-69
2021/01/18 08:55:31;;;;;;;55.63;23.13;;;;;;;-10.31;66.80;99542.23;120107;1151;104876;-70
2021/01/18 08:58:03;;;;;;;55.38;23.45;;;;;;;-10.34;66.50;99537.91;119873;1151;104484;-69
2021/01/18 09:00:42;;;;;;;61.80;26.87;;;;;;;-10.30;66.53;99535.41;120259;1151;104460;-70
2021/01/18 09:03:21;;;;;;;58.13;24.20;;;;;;;-10.26;66.57;99539.77;120772;1150;103916;-70
2021/01/18 09:05:52;;;;;;;68.10;26.67;;;;;;;-10.24;66.47;99540.67;119814;1151;104416;-71
2021/01/18 09:08:21;;;;;;;71.27;27.33;;;;;;;-10.22;65.98;99538.99;119769;1151;104369;-70
2021/01/18 09:11:01;;;;;;;65.70;28.40;;;;;;;-10.20;67.06;99540.73;120000;1151;104455;-72
2021/01/18 09:13:32;;;;;;;66.63;27.57;;;;;;;-10.18;66.14;99536.49;120084;1151;104453;-71
2021/01/18 09:16:03;;;;;;;59.97;25.57;;;;;;;-10.08;67.00;99540.09;119918;1151;104489;-71
2021/01/18 09:18:30;;;;;;;60.40;22.83;;;;;;;-10.17;65.74;99542.48;119874;1151;104377;-71
2021/01/18 09:20:59;;;;;;;60.33;24.57;;;;;;;-10.21;66.35;99549.30;119968;1151;104448;-70
2021/01/18 09:23:28;;;;;;;60.57;25.13;;;;;;;-10.23;65.96;99540.68;120012;1151;104380;-70
2021/01/18 09:26:11;;;;;;;66.43;29.40;;;;;;;-10.22;66.49;99549.28;121481;1150;102351;-70
2021/01/18 09:28:55;;;;;;;59.63;23.47;;;;;;;-10.20;66.62;99540.73;120193;1151;104595;-72
2021/01/18 09:31:24;;;;;;;69.07;28.93;;;;;;;-10.17;66.51;99537.34;120000;1151;104352;-71
2021/01/18 09:33:52;;;;;;;61.53;24.47;;;;;;;-10.17;66.08;99538.23;120046;1151;104399;-69
2021/01/18 09:36:26;;;;;;;80.00;31.07;;;;;;;-10.29;66.07;99540.56;119992;1151;104441;-71
2021/01/18 09:38:53;;;;;;;84.37;32.83;;;;;;;-10.33;66.02;99541.34;119977;1151;104346;-69
2021/01/18 09:41:24;;;;;;;73.70;28.27;;;;;;;-10.35;66.68;99543.01;119944;1153;104524;-71
2021/01/18 09:43:54;;;;;;;80.17;32.43;;;;;;;-10.46;66.15;99542.84;120611;1151;104369;-69
2021/01/18 09:46:22;;;;;;;75.67;28.57;;;;;;;-10.59;66.52;99540.88;119929;1151;104444;-70
2021/01/18 09:48:50;;;;;;;79.17;31.00;;;;;;;-10.65;65.89;99526.18;119894;1151;104445;-70
2021/01/18 09:51:20;;;;;;;77.50;29.93;;;;;;;-10.65;66.53;99523.61;121050;1150;104376;-70
2021/01/18 09:53:56;;;;;;;73.87;27.30;;;;;;;-10.68;66.66;99531.25;120148;1151;104350;-70
2021/01/18 09:56:27;;;;;;;75.40;29.65;;;;;;;-10.67;66.38;99528.73;120002;1150;104372;-69
2021/01/18 09:58:58;;;;;;;77.33;31.77;;;;;;;-10.63;66.11;99519.36;119870;1151;104395;-70
2021/01/18 10:01:32;;;;;;;72.37;29.57;;;;;;;-10.54;66.93;99521.24;120357;1150;104445;-70
2021/01/18 10:04:05;;;;;;;79.67;31.43;;;;;;;-10.42;66.82;99520.64;120818;1151;104360;-71
2021/01/18 10:06:35;;;;;;;76.20;28.53;;;;;;;-10.37;66.71;99514.70;119886;1151;104449;-70
2021/01/18 10:09:08;;;;;;;83.83;33.30;;;;;;;-10.32;65.92;99525.06;119991;1151;104387;-72
2021/01/18 10:11:44;;;;;;;80.07;32.00;;;;;;;-10.32;66.12;99528.52;120072;1151;104380;-72
2021/01/18 10:14:18;;;;;;;79.97;32.27;;;;;;;-10.33;66.53;99524.22;120330;1151;104455;-71
2021/01/18 10:17:04;;;;;;;80.37;31.83;;;;;;;-10.32;66.53;99517.34;119989;1151;104445;-71
2021/01/18 10:19:35;;;;;;;88.40;36.40;;;;;;;-10.29;66.67;99512.27;119960;1152;104499;-71
2021/01/18 10:22:19;;;;;;;91.90;34.15;;;;;;;-10.27;66.66;99509.73;120325;1151;104369;-71
2021/01/18 10:24:59;;;;;;;86.80;34.27;;;;;;;-10.18;66.67;99512.45;120008;1151;104357;-70
2021/01/18 10:27:31;;;;;;;70.17;30.07;;;;;;;-10.23;66.61;99501.23;120434;1151;104461;-71
2021/01/18 10:30:11;;;;;;;95.77;37.13;;;;;;;-10.29;67.10;99501.12;120057;1151;104451;-71
2021/01/18 10:32:45;;;;;;;84.33;32.63;;;;;;;-10.26;67.30;99496.89;120129;1151;104497;-71
2021/01/18 10:35:24;;;;;;;85.73;33.33;;;;;;;-10.26;67.31;99496.89;120104;1151;104455;-69
2021/01/18 10:37:51;;;;;;;90.70;36.27;;;;;;;-10.23;66.55;99491.80;120948;1152;104362;-71
2021/01/18 10:40:22;;;;;;;83.43;33.67;;;;;;;-10.15;66.72;99496.22;119909;1151;104352;-72
2021/01/18 10:42:55;;;;;;;85.87;33.47;;;;;;;-10.09;66.77;99489.47;119941;1151;104492;-72
2021/01/18 10:45:25;;;;;;;87.20;34.67;;;;;;;-10.04;66.23;99487.84;120017;1151;104524;-70
2021/01/18 10:48:00;;;;;;;81.40;34.97;;;;;;;-9.98;66.23;99487.07;119863;1149;104369;-71
2021/01/18 10:50:31;;;;;;;86.40;36.63;;;;;;;-9.92;66.24;99492.33;120114;1151;104352;-70
2021/01/18 10:53:11;;;;;;;80.47;32.50;;;;;;;-9.93;66.18;99493.17;119948;1151;104389;-72
2021/01/18 10:55:39;;;;;;;80.77;33.40;;;;;;;-9.87;66.96;99490.70;119958;1151;104467;-71
2021/01/18 10:58:27;;;;;;;89.53;34.53;;;;;;;-9.84;65.89;99486.44;119875;1150;104457;-72
2021/01/18 11:01:08;;;;;;;87.47;35.63;;;;;;;-9.84;66.06;99478.72;119871;1150;104449;-70
2021/01/18 11:03:38;;;;;;;89.17;34.83;;;;;;;-9.80;66.00;99477.94;119830;1151;104353;-72
2021/01/18 11:06:14;;;;;;;83.45;29.35;;;;;;;-9.86;66.09;99481.28;120709;1151;104380;-72
2021/01/18 11:08:52;;;;;;;95.27;40.30;;;;;;;-9.85;65.93;99477.88;120015;1151;104368;-71
2021/01/18 11:11:25;;;;;;;82.90;32.30;;;;;;;-9.81;66.17;99481.34;119811;1151;104387;-70
2021/01/18 11:14:05;;;;;;;90.93;34.17;;;;;;;-9.77;66.58;99472.84;119810;1151;104371;-69
2021/01/18 11:16:33;;;;;;;81.00;31.37;;;;;;;-9.70;66.18;99464.38;120033;1151;103113;-71
2021/01/18 11:19:07;;;;;;;81.97;31.77;;;;;;;-9.65;66.32;99467.01;119979;1151;106473;-71